Time;durP1;ratioP1;P1;durP2;ratioP2;P2;SDS_P1;SDS_P2;PMS_P1;PMS_P2;Temp;Humidity;BMP_temperature;BMP_pressure;BME280_temperature;BME280_humidity;BME280_pressure;Samples;Min_cycle;Max_cycle;Signal;HPM_P1;HPM_P2
2021/09/04 00:00:45;;;;;;;4.37;3.20;;;11.70;99.90;;;;;;4125684;28;20030;-62
2021/09/04 00:02:46;;;;;;;5.77;3.50;;;11.70;99.90;;;;;;4124406;28;20046;-62
2021/09/04 00:04:48;;;;;;;6.00;3.23;;;11.70;99.90;;;;;;4125559;28;20144;-63
2021/09/04 00:06:49;;;;;;;4.53;3.03;;;11.70;99.90;;;;;;4124300;28;20089;-63
2021/09/04 00:08:50;;;;;;;5.30;2.70;;;11.70;99.90;;;;;;4125515;28;20034;-63
2021/09/04 00:10:51;;;;;;;3.13;2.50;;;11.70;99.90;;;;;;4124748;28;20423;-63
2021/09/04 00:12:52;;;;;;;4.63;2.90;;;11.70;99.90;;;;;;4124137;28;20077;-63
2021/09/04 00:14:54;;;;;;;3.97;2.80;;;11.70;99.90;;;;;;4124984;28;20104;-62
2021/09/04 00:16:55;;;;;;;5.43;3.50;;;11.70;99.90;;;;;;4123076;28;20077;-61
2021/09/04 00:18:57;;;;;;;8.47;3.43;;;11.70;99.90;;;;;;4126954;28;20026;-62
2021/09/04 00:20:59;;;;;;;5.40;3.00;;;11.70;99.90;;;;;;4124451;28;20030;-61
2021/09/04 00:23:01;;;;;;;4.27;2.80;;;11.70;99.90;;;;;;4125423;28;20097;-63
2021/09/04 00:25:02;;;;;;;5.37;2.80;;;11.70;99.90;;;;;;4124591;28;20042;-62
2021/09/04 00:27:06;;;;;;;4.37;2.87;;;11.60;99.90;;;;;;4125331;28;20042;-62
2021/09/04 00:29:07;;;;;;;3.90;2.70;;;11.70;99.90;;;;;;4124462;28;20038;-64
2021/09/04 00:31:09;;;;;;;3.03;2.40;;;11.60;99.90;;;;;;4125110;28;20038;-62
2021/09/04 00:33:10;;;;;;;3.07;2.40;;;11.60;99.90;;;;;;4124011;28;20034;-62
2021/09/04 00:35:11;;;;;;;5.77;2.97;;;11.70;99.90;;;;;;4125238;28;20034;-62
2021/09/04 00:37:12;;;;;;;2.50;2.30;;;11.70;99.90;;;;;;4124208;28;20101;-62
2021/09/04 00:39:14;;;;;;;4.60;2.90;;;11.70;99.90;;;;;;4125044;28;20557;-62
2021/09/04 00:41:22;;;;;;;5.47;3.13;;;11.70;99.90;;;;;;4124699;28;20030;-63
2021/09/04 00:43:23;;;;;;;4.20;2.87;;;11.70;99.90;;;;;;4124474;28;20042;-63
2021/09/04 00:45:24;;;;;;;3.73;2.80;;;11.60;99.90;;;;;;4124417;28;20030;-61
2021/09/04 00:47:26;;;;;;;4.73;2.60;;;11.60;99.90;;;;;;4124032;28;20482;-62
2021/09/04 00:49:27;;;;;;;5.37;2.60;;;11.60;99.90;;;;;;4124562;28;20034;-62
2021/09/04 00:51:28;;;;;;;5.60;2.10;;;11.60;99.90;;;;;;4123775;28;20494;-62
2021/09/04 00:53:29;;;;;;;4.67;2.47;;;11.60;99.90;;;;;;4125605;28;20071;-62
2021/09/04 00:55:31;;;;;;;5.73;2.63;;;11.60;99.90;;;;;;4124196;28;20537;-64
2021/09/04 00:57:32;;;;;;;4.03;2.70;;;11.60;99.90;;;;;;4125098;28;20077;-63
2021/09/04 00:59:34;;;;;;;5.07;2.50;;;11.50;99.90;;;;;;4124073;28;20495;-62
2021/09/04 01:01:36;;;;;;;4.07;2.60;;;11.60;99.90;;;;;;4124048;28;20093;-63
2021/09/04 01:03:37;;;;;;;8.80;2.70;;;11.50;99.90;;;;;;4124015;28;20093;-63
2021/09/04 01:05:39;;;;;;;3.30;2.70;;;11.50;99.90;;;;;;4124947;28;20042;-63
2021/09/04 01:07:42;;;;;;;5.90;3.57;;;11.40;99.90;;;;;;4124005;28;20042;-62
2021/09/04 01:09:43;;;;;;;5.17;2.80;;;11.40;99.90;;;;;;4125316;28;20038;-63
2021/09/04 01:11:44;;;;;;;8.37;3.70;;;11.30;99.90;;;;;;4123742;28;20041;-63
2021/09/04 01:13:46;;;;;;;3.93;3.07;;;11.30;99.90;;;;;;4125080;28;20030;-62
2021/09/04 01:15:48;;;;;;;5.17;2.87;;;11.30;99.90;;;;;;4124292;28;20509;-62
2021/09/04 01:17:50;;;;;;;5.97;2.93;;;11.30;99.90;;;;;;4124032;28;20030;-63
2021/09/04 01:19:51;;;;;;;6.87;2.87;;;11.30;99.90;;;;;;4124445;28;20022;-62
2021/09/04 01:21:53;;;;;;;6.27;2.90;;;11.30;99.90;;;;;;4123706;28;20368;-63
2021/09/04 01:23:54;;;;;;;4.33;2.40;;;11.30;99.90;;;;;;4124574;28;20046;-63
2021/09/04 01:26:01;;;;;;;4.40;3.10;;;11.30;99.90;;;;;;4123439;28;20095;-63
2021/09/04 01:28:03;;;;;;;4.50;2.63;;;11.30;99.90;;;;;;4124891;28;20026;-60
2021/09/04 01:30:07;;;;;;;4.57;2.90;;;11.30;99.90;;;;;;4123615;28;20073;-62
2021/09/04 01:32:08;;;;;;;4.50;2.70;;;11.30;99.90;;;;;;4124921;28;20042;-63
2021/09/04 01:34:10;;;;;;;3.63;2.50;;;11.30;99.90;;;;;;4123550;28;20506;-62
2021/09/04 01:36:12;;;;;;;4.03;3.10;;;11.30;99.90;;;;;;4124980;28;20042;-62
2021/09/04 01:38:14;;;;;;;4.23;2.77;;;11.20;99.90;;;;;;4123752;28;20474;-61
2021/09/04 01:40:16;;;;;;;5.53;3.10;;;11.20;99.90;;;;;;4125537;28;20363;-62
2021/09/04 01:42:17;;;;;;;6.07;2.37;;;11.20;99.90;;;;;;4123432;28;20097;-62
2021/09/04 01:44:18;;;;;;;3.43;2.50;;;11.20;99.90;;;;;;4125004;28;20042;-62
2021/09/04 01:46:20;;;;;;;6.00;2.30;;;11.20;99.90;;;;;;4123430;28;20026;-64
2021/09/04 01:48:21;;;;;;;4.27;2.67;;;11.20;99.90;;;;;;4124491;28;20089;-62
2021/09/04 01:50:22;;;;;;;3.63;2.70;;;11.20;99.90;;;;;;4123770;28;20042;-62
2021/09/04 01:52:23;;;;;;;3.70;2.57;;;11.20;99.90;;;;;;4123963;28;20562;-62
2021/09/04 01:54:25;;;;;;;4.10;2.27;;;11.20;99.90;;;;;;4124493;28;20084;-62
2021/09/04 01:56:26;;;;;;;3.67;2.50;;;11.20;99.90;;;;;;4123186;28;20105;-62
2021/09/04 01:58:27;;;;;;;3.50;2.60;;;11.20;99.90;;;;;;4124546;28;20430;-62
2021/09/04 02:00:29;;;;;;;6.97;3.13;;;11.20;99.90;;;;;;4126169;28;20046;-63
2021/09/04 02:02:30;;;;;;;6.13;2.70;;;11.20;99.90;;;;;;4127789;28;20097;-62
2021/09/04 02:04:31;;;;;;;3.30;2.67;;;11.20;99.90;;;;;;4126175;28;20576;-61
2021/09/04 02:06:32;;;;;;;4.20;2.70;;;11.20;99.90;;;;;;4127783;28;20042;-63
2021/09/04 02:08:33;;;;;;;4.20;2.83;;;11.20;99.90;;;;;;4126363;28;20034;-62
2021/09/04 02:10:34;;;;;;;4.30;2.50;;;11.20;99.90;;;;;;4127963;28;20553;-63
2021/09/04 02:12:36;;;;;;;5.07;2.13;;;11.20;99.90;;;;;;4126322;28;20030;-63
2021/09/04 02:14:37;;;;;;;4.03;2.37;;;11.20;99.90;;;;;;4127420;28;20537;-62
2021/09/04 02:16:38;;;;;;;5.33;2.33;;;11.20;99.90;;;;;;4126461;28;20038;-61
2021/09/04 02:18:40;;;;;;;5.80;2.70;;;11.20;99.90;;;;;;4127226;28;20076;-62
2021/09/04 02:20:41;;;;;;;4.67;2.47;;;11.20;99.90;;;;;;4126504;28;20046;-62
2021/09/04 02:22:42;;;;;;;5.63;3.63;;;11.10;99.90;;;;;;4126402;28;20046;-62
2021/09/04 02:24:43;;;;;;;5.30;3.47;;;11.10;99.90;;;;;;4126848;28;20022;-62
2021/09/04 02:26:44;;;;;;;8.37;4.47;;;11.10;99.90;;;;;;4125175;28;20093;-62
2021/09/04 02:28:45;;;;;;;6.97;3.53;;;10.90;99.90;;;;;;4127165;28;20487;-62
2021/09/04 02:30:46;;;;;;;5.73;3.60;;;10.70;99.90;;;;;;4126073;28;20034;-62
2021/09/04 02:32:47;;;;;;;7.37;3.53;;;10.50;99.90;;;;;;4126954;28;20026;-61
2021/09/04 02:34:49;;;;;;;7.83;3.43;;;10.30;99.90;;;;;;4125712;28;20038;-62
2021/09/04 02:36:50;;;;;;;8.63;3.80;;;10.30;99.90;;;;;;4127003;28;20042;-61
2021/09/04 02:38:51;;;;;;;7.90;4.53;;;10.20;99.90;;;;;;4124204;28;20383;-62
2021/09/04 02:40:52;;;;;;;7.27;3.83;;;10.20;99.90;;;;;;4127224;28;20038;-61
2021/09/04 02:42:54;;;;;;;11.13;4.07;;;10.10;99.90;;;;;;4125398;28;20120;-62
2021/09/04 02:44:55;;;;;;;10.37;3.60;;;10.00;99.90;;;;;;4126831;28;20262;-62
2021/09/04 02:46:56;;;;;;;7.33;4.07;;;10.00;99.90;;;;;;4125831;28;20031;-61
2021/09/04 02:48:57;;;;;;;9.33;4.03;;;9.90;99.90;;;;;;4126478;28;20038;-61
2021/09/04 02:50:58;;;;;;;8.63;4.47;;;9.90;99.90;;;;;;4126324;28;20063;-63
2021/09/04 02:52:59;;;;;;;9.47;4.20;;;9.80;99.90;;;;;;4126107;28;20100;-63
2021/09/04 02:55:00;;;;;;;10.57;5.37;;;9.80;99.90;;;;;;4141351;28;20045;-64
2021/09/04 02:57:02;;;;;;;7.57;3.90;;;9.80;99.90;;;;;;4125856;28;20451;-62
2021/09/04 02:59:04;;;;;;;7.50;4.20;;;9.80;99.90;;;;;;4126515;28;20073;-63
2021/09/04 03:01:05;;;;;;;6.77;4.30;;;9.80;99.90;;;;;;4125242;28;20081;-62
2021/09/04 03:03:06;;;;;;;7.00;4.20;;;9.70;99.90;;;;;;4126807;28;20038;-62
2021/09/04 03:05:07;;;;;;;8.63;4.83;;;9.60;99.90;;;;;;4125491;28;20447;-62
2021/09/04 03:07:09;;;;;;;9.37;4.20;;;9.60;99.90;;;;;;4126953;28;20097;-62
2021/09/04 03:09:10;;;;;;;8.67;4.00;;;9.60;99.90;;;;;;4125611;28;20042;-61
2021/09/04 03:11:11;;;;;;;9.03;4.70;;;9.50;99.90;;;;;;4126445;28;20046;-61
2021/09/04 03:13:12;;;;;;;10.50;4.90;;;9.50;99.90;;;;;;4125423;28;20073;-63
2021/09/04 03:15:13;;;;;;;10.57;4.50;;;9.50;99.90;;;;;;4126304;28;20038;-62
2021/09/04 03:17:14;;;;;;;6.40;4.20;;;9.50;99.90;;;;;;4125333;28;20030;-62
2021/09/04 03:19:15;;;;;;;10.70;4.80;;;9.50;99.90;;;;;;4126047;28;20042;-62
2021/09/04 03:21:17;;;;;;;11.03;5.07;;;9.50;99.90;;;;;;4125752;28;20085;-63
2021/09/04 03:23:19;;;;;;;7.87;4.77;;;9.60;99.90;;;;;;4125769;28;20112;-62
2021/09/04 03:25:20;;;;;;;13.30;5.00;;;9.50;99.90;;;;;;4126004;28;20081;-62
2021/09/04 03:27:22;;;;;;;9.63;5.33;;;9.50;99.90;;;;;;4125110;28;20046;-62
2021/09/04 03:29:23;;;;;;;11.97;5.03;;;9.50;99.90;;;;;;4126229;28;20088;-63
2021/09/04 03:31:24;;;;;;;14.57;5.60;;;9.50;99.90;;;;;;4124576;28;20026;-62
2021/09/04 03:33:26;;;;;;;10.77;5.60;;;9.40;99.90;;;;;;4125828;28;20042;-62
2021/09/04 03:35:27;;;;;;;13.80;5.83;;;9.50;99.90;;;;;;4125467;28;20050;-62
2021/09/04 03:37:28;;;;;;;7.83;4.80;;;9.40;99.90;;;;;;4126019;28;20026;-62
2021/09/04 03:39:29;;;;;;;11.83;5.30;;;9.40;99.90;;;;;;4124569;28;20034;-62
2021/09/04 03:41:30;;;;;;;10.83;5.47;;;9.30;99.90;;;;;;4126959;28;20038;-62
2021/09/04 03:43:34;;;;;;;9.10;4.93;;;9.30;99.90;;;;;;4124641;28;20434;-63
2021/09/04 03:45:36;;;;;;;15.53;6.47;;;9.30;99.90;;;;;;4125572;28;20097;-62
2021/09/04 03:47:37;;;;;;;10.53;5.17;;;9.30;99.90;;;;;;4124102;28;20112;-61
2021/09/04 03:49:38;;;;;;;10.13;5.33;;;9.30;99.90;;;;;;4125478;28;20088;-62
2021/09/04 03:51:41;;;;;;;10.67;5.73;;;9.20;99.90;;;;;;4124877;28;20026;-62
2021/09/04 03:53:43;;;;;;;11.87;5.50;;;9.30;99.90;;;;;;4125148;28;20042;-63
2021/09/04 03:55:44;;;;;;;12.50;5.03;;;9.30;99.90;;;;;;4109432;28;20078;-63
2021/09/04 03:57:45;;;;;;;11.70;5.90;;;9.40;99.90;;;;;;4108359;28;20026;-63
2021/09/04 03:59:46;;;;;;;9.93;5.53;;;9.40;99.90;;;;;;4109260;28;20050;-63
2021/09/04 04:01:48;;;;;;;10.40;6.30;;;9.50;99.90;;;;;;4124250;28;20050;-63
2021/09/04 04:03:49;;;;;;;16.30;6.20;;;9.60;99.90;;;;;;4125575;28;20812;-63
2021/09/04 04:05:51;;;;;;;10.73;5.60;;;9.70;99.90;;;;;;4124400;28;20030;-63
2021/09/04 04:07:52;;;;;;;9.53;5.90;;;9.80;99.90;;;;;;4125892;28;20089;-62
2021/09/04 04:09:53;;;;;;;7.53;5.37;;;9.80;99.90;;;;;;4124478;28;20150;-63
2021/09/04 04:11:54;;;;;;;12.13;5.37;;;9.90;99.90;;;;;;4125714;28;20101;-62
2021/09/04 04:13:56;;;;;;;10.50;5.97;;;9.90;99.90;;;;;;4123960;28;20042;-62
2021/09/04 04:15:57;;;;;;;10.27;5.77;;;9.90;99.90;;;;;;4125536;28;20034;-63
2021/09/04 04:17:58;;;;;;;12.23;6.67;;;10.00;99.90;;;;;;4124587;28;20050;-63
2021/09/04 04:19:59;;;;;;;11.30;7.20;;;10.00;99.90;;;;;;4125264;28;20041;-63
2021/09/04 04:22:00;;;;;;;9.37;7.03;;;10.10;99.90;;;;;;4124249;28;20603;-62
2021/09/04 04:24:01;;;;;;;12.17;6.93;;;10.10;99.90;;;;;;4124770;28;20096;-63
2021/09/04 04:26:02;;;;;;;13.37;7.03;;;10.30;99.90;;;;;;4124574;28;20085;-63
2021/09/04 04:28:04;;;;;;;14.70;9.47;;;10.30;99.90;;;;;;4124895;28;20045;-63
2021/09/04 04:30:06;;;;;;;21.97;10.37;;;10.40;99.90;;;;;;4125022;28;20081;-63
2021/09/04 04:32:07;;;;;;;23.37;11.50;;;10.60;99.90;;;;;;4124124;28;20422;-62
2021/09/04 04:34:08;;;;;;;24.83;12.30;;;10.80;99.90;;;;;;4125253;28;20034;-63
2021/09/04 04:36:09;;;;;;;18.57;11.13;;;10.90;99.90;;;;;;4123985;28;20077;-63
2021/09/04 04:38:10;;;;;;;24.13;14.23;;;11.00;99.90;;;;;;4124900;28;20041;-63
2021/09/04 04:40:12;;;;;;;21.30;9.13;;;11.20;99.90;;;;;;4124174;28;20033;-62
2021/09/04 04:42:13;;;;;;;30.93;20.73;;;11.20;99.90;;;;;;4125655;28;20034;-64
2021/09/04 04:44:14;;;;;;;62.60;39.00;;;11.30;99.90;;;;;;4123383;28;20042;-62
2021/09/04 04:46:15;;;;;;;65.17;44.83;;;11.60;99.90;;;;;;4124335;28;20046;-63
2021/09/04 04:48:18;;;;;;;82.67;58.27;;;11.70;99.90;;;;;;4123482;28;20120;-64
2021/09/04 04:50:20;;;;;;;79.23;58.20;;;11.80;99.90;;;;;;4124845;28;20030;-64
2021/09/04 04:52:21;;;;;;;89.90;63.53;;;11.80;99.90;;;;;;4121995;28;20077;-63
2021/09/04 04:54:22;;;;;;;73.83;53.10;;;11.90;99.90;;;;;;4124095;28;20081;-63
2021/09/04 04:56:23;;;;;;;59.57;43.60;;;11.90;99.90;;;;;;4138644;28;20092;-63
2021/09/04 04:58:24;;;;;;;45.97;32.53;;;11.90;99.90;;;;;;4123637;28;20616;-63
2021/09/04 05:00:26;;;;;;;36.77;26.47;;;12.00;99.90;;;;;;4124243;28;20097;-63
2021/09/04 05:02:27;;;;;;;41.90;27.90;;;12.00;99.90;;;;;;4122520;28;20454;-63
2021/09/04 05:04:28;;;;;;;36.13;25.67;;;12.30;99.90;;;;;;4124156;28;20042;-62
2021/09/04 05:06:29;;;;;;;37.67;24.53;;;13.00;99.90;;;;;;4122583;28;20082;-63
2021/09/04 05:08:30;;;;;;;26.03;15.97;;;13.80;99.90;;;;;;4124474;28;20035;-63
2021/09/04 05:10:31;;;;;;;14.63;7.83;;;14.30;99.90;;;;;;4124142;28;20085;-63
2021/09/04 05:12:32;;;;;;;10.37;5.53;;;14.90;99.90;;;;;;4124770;28;20093;-64
2021/09/04 05:14:35;;;;;;;11.63;6.93;;;15.40;99.90;;;;;;4123881;28;20042;-63
2021/09/04 05:16:36;;;;;;;9.73;5.03;;;16.00;99.90;;;;;;4124699;28;20437;-64
2021/09/04 05:18:37;;;;;;;13.67;5.40;;;16.20;99.90;;;;;;4123286;28;20042;-63
2021/09/04 05:20:38;;;;;;;15.75;5.40;;;15.90;99.90;;;;;;4124502;28;20089;-63
2021/09/04 05:22:43;;;;;;;12.07;5.13;;;15.90;99.90;;;;;;4123225;28;20475;-63
2021/09/04 05:24:44;;;;;;;12.55;5.97;;;15.90;99.90;;;;;;4124766;28;20046;-64
2021/09/04 05:26:45;;;;;;;9.23;4.13;;;16.40;99.90;;;;;;4124233;28;20134;-63
2021/09/04 05:28:46;;;;;;;8.82;4.30;;;17.10;99.90;;;;;;4123925;28;20074;-64
2021/09/04 05:30:47;;;;;;;6.45;3.78;;;17.60;99.90;;;;;;4123498;28;20632;-64
2021/09/04 05:32:48;;;;;;;8.43;3.60;;;18.10;99.90;;;;;;4123366;28;20084;-64
2021/09/04 05:34:50;;;;;;;7.47;4.32;;;18.60;99.90;;;;;;4126562;28;20042;-63
2021/09/04 05:36:51;;;;;;;8.00;4.13;;;18.80;99.90;;;;;;4126238;28;20089;-64
2021/09/04 05:38:52;;;;;;;4.68;3.35;;;19.00;99.90;;;;;;4128093;28;20042;-63
2021/09/04 05:40:53;;;;;;;7.45;4.15;;;19.20;99.90;;;;;;4126856;28;20046;-64
2021/09/04 05:42:55;;;;;;;4.43;2.95;;;19.10;99.90;;;;;;4127546;28;20093;-65
2021/09/04 05:44:56;;;;;;;5.75;3.17;;;19.00;99.90;;;;;;4126134;28;20046;-63
2021/09/04 05:46:57;;;;;;;9.07;4.30;;;19.50;99.90;;;;;;4127520;28;20506;-63
2021/09/04 05:48:58;;;;;;;8.95;4.03;;;19.80;99.90;;;;;;4125125;28;20034;-63
2021/09/04 05:50:59;;;;;;;5.07;3.17;;;20.40;99.30;;;;;;4125986;28;20097;-63
2021/09/04 05:53:00;;;;;;;4.70;2.80;;;20.70;98.30;;;;;;4117957;28;20430;-63
2021/09/04 05:55:02;;;;;;;5.75;3.25;;;21.10;97.80;;;;;;4127105;28;20073;-64
2021/09/04 05:57:03;;;;;;;9.38;3.15;;;21.30;97.00;;;;;;4126935;28;20073;-64
2021/09/04 05:59:04;;;;;;;7.72;2.35;;;21.80;96.30;;;;;;4126545;28;20058;-63
2021/09/04 06:01:06;;;;;;;4.05;2.65;;;22.10;95.60;;;;;;4126844;28;20089;-64
2021/09/04 06:03:07;;;;;;;4.43;3.47;;;22.40;94.80;;;;;;4126210;28;20100;-63
2021/09/04 06:05:09;;;;;;;4.85;2.70;;;22.00;94.20;;;;;;4111525;28;20114;-64
2021/09/04 06:07:10;;;;;;;4.32;2.75;;;22.00;94.50;;;;;;4118451;28;20081;-64
2021/09/04 06:09:11;;;;;;;4.97;2.63;;;22.20;94.00;;;;;;4127399;28;20030;-62
2021/09/04 06:11:12;;;;;;;3.33;2.17;;;22.70;93.50;;;;;;4126946;28;20050;-64
2021/09/04 06:13:13;;;;;;;4.35;2.00;;;23.10;92.60;;;;;;4123636;28;20457;-63
2021/09/04 06:15:14;;;;;;;6.47;2.50;;;23.30;91.90;;;;;;4121815;28;20050;-64
2021/09/04 06:17:16;;;;;;;3.03;2.20;;;23.40;91.40;;;;;;4127056;28;20106;-64
2021/09/04 06:19:17;;;;;;;4.72;2.13;;;23.70;91.20;;;;;;4111261;28;20545;-64
2021/09/04 06:21:18;;;;;;;3.63;2.03;;;23.40;90.80;;;;;;4125178;28;20042;-64
2021/09/04 06:23:19;;;;;;;5.80;2.83;;;23.40;90.80;;;;;;4112353;28;20499;-63
2021/09/04 06:25:20;;;;;;;9.45;4.55;;;23.80;90.50;;;;;;4118701;28;20047;-64
2021/09/04 06:27:21;;;;;;;11.57;5.93;;;23.60;90.30;;;;;;4111314;28;20073;-64
2021/09/04 06:29:24;;;;;;;10.93;6.38;;;22.90;90.70;;;;;;4110507;28;20050;-64
2021/09/04 06:31:26;;;;;;;11.35;5.60;;;22.60;91.10;;;;;;4124620;28;20089;-64
2021/09/04 06:33:27;;;;;;;12.57;5.03;;;22.50;91.30;;;;;;4124348;28;20644;-65
2021/09/04 06:35:28;;;;;;;9.98;5.07;;;22.40;91.20;;;;;;4124465;28;20042;-64
2021/09/04 06:37:29;;;;;;;8.82;3.95;;;22.20;91.40;;;;;;4124669;28;20042;-64
2021/09/04 06:39:30;;;;;;;4.13;3.67;;;22.40;91.20;;;;;;4120055;28;20089;-63
2021/09/04 06:41:31;;;;;;;7.60;4.20;;;22.40;91.00;;;;;;4124547;28;20046;-62
2021/09/04 06:43:32;;;;;;;6.93;3.22;;;22.10;91.10;;;;;;4125428;28;20065;-66
2021/09/04 06:45:33;;;;;;;7.43;3.67;;;21.40;91.60;;;;;;4122806;28;20046;-64
2021/09/04 06:47:35;;;;;;;7.00;3.63;;;21.30;91.90;;;;;;4125268;28;20160;-63
2021/09/04 06:49:36;;;;;;;5.72;2.92;;;20.90;92.30;;;;;;4118726;28;20046;-63
2021/09/04 06:51:37;;;;;;;8.13;4.63;;;20.70;92.50;;;;;;4124586;28;20546;-64
2021/09/04 06:53:38;;;;;;;7.25;3.35;;;20.80;92.50;;;;;;4123613;28;20091;-63
2021/09/04 06:55:39;;;;;;;9.32;3.85;;;20.90;92.50;;;;;;4123929;28;20046;-64
2021/09/04 06:57:40;;;;;;;5.40;3.65;;;21.40;92.20;;;;;;4123453;28;20036;-63
2021/09/04 06:59:41;;;;;;;8.18;3.47;;;21.50;91.90;;;;;;4118678;28;20387;-64
2021/09/04 07:01:42;;;;;;;5.00;3.35;;;21.50;91.90;;;;;;4124135;28;20824;-64
2021/09/04 07:03:44;;;;;;;12.35;3.83;;;21.20;91.90;;;;;;4123521;28;20042;-63
2021/09/04 07:05:45;;;;;;;8.20;4.20;;;21.20;92.20;;;;;;4124008;28;20053;-64
2021/09/04 07:07:46;;;;;;;10.25;3.78;;;20.90;92.40;;;;;;4123396;28;20030;-67
2021/09/04 07:09:47;;;;;;;12.82;4.30;;;20.40;92.70;;;;;;4119914;28;20038;-62
2021/09/04 07:11:48;;;;;;;11.38;4.38;;;19.80;93.30;;;;;;4123849;28;20109;-64
2021/09/04 07:13:50;;;;;;;8.40;4.07;;;19.50;94.00;;;;;;4124833;28;20026;-63
2021/09/04 07:15:51;;;;;;;7.50;4.03;;;19.30;94.10;;;;;;4111352;28;20066;-62
2021/09/04 07:17:52;;;;;;;8.32;4.93;;;19.20;94.30;;;;;;4109644;28;20026;-62
2021/09/04 07:19:53;;;;;;;8.00;3.70;;;19.10;94.50;;;;;;4108996;28;20027;-63
2021/09/04 07:21:54;;;;;;;8.25;4.50;;;19.10;94.50;;;;;;4110147;28;20097;-64
2021/09/04 07:23:55;;;;;;;8.20;4.40;;;18.90;94.70;;;;;;4108874;28;20046;-65
2021/09/04 07:25:56;;;;;;;7.75;4.82;;;18.80;95.00;;;;;;4109040;28;20372;-66
2021/09/04 07:27:58;;;;;;;14.50;6.20;;;18.80;94.90;;;;;;4108590;28;20089;-64
2021/09/04 07:29:59;;;;;;;24.27;12.10;;;19.00;94.80;;;;;;4108507;28;20266;-65
2021/09/04 07:32:01;;;;;;;29.13;17.13;;;19.10;94.80;;;;;;4109184;28;20065;-64
2021/09/04 07:34:02;;;;;;;30.40;17.13;;;19.20;95.00;;;;;;4108661;28;20089;-65
2021/09/04 07:36:08;;;;;;;23.92;13.35;;;19.10;95.10;;;;;;4109354;28;20097;-65
2021/09/04 07:38:09;;;;;;;17.08;9.75;;;18.60;95.60;;;;;;4108365;28;20043;-64
2021/09/04 07:40:11;;;;;;;18.23;9.18;;;18.60;96.20;;;;;;4111817;28;20090;-62
2021/09/04 07:42:12;;;;;;;15.70;9.40;;;18.60;96.30;;;;;;4124820;28;20038;-62
2021/09/04 07:44:13;;;;;;;13.93;7.95;;;19.00;96.20;;;;;;4124959;28;20046;-63
2021/09/04 07:46:14;;;;;;;13.98;8.20;;;19.00;95.90;;;;;;4124454;28;20030;-64
2021/09/04 07:48:16;;;;;;;16.50;6.95;;;19.20;96.10;;;;;;4125361;28;20089;-63
2021/09/04 07:50:17;;;;;;;10.88;6.25;;;19.30;96.10;;;;;;4124000;28;20038;-69
2021/09/04 07:52:18;;;;;;;12.48;7.40;;;19.50;96.20;;;;;;4126116;28;20042;-62
2021/09/04 07:54:19;;;;;;;14.52;7.95;;;20.00;96.00;;;;;;4123635;28;20469;-64
2021/09/04 07:56:20;;;;;;;17.52;8.15;;;20.00;95.80;;;;;;4125494;28;20026;-63
2021/09/04 07:58:22;;;;;;;18.77;6.45;;;19.90;95.80;;;;;;4122338;28;20085;-61
2021/09/04 08:00:23;;;;;;;10.45;6.50;;;19.80;96.10;;;;;;4124733;28;20035;-63
2021/09/04 08:02:24;;;;;;;9.63;5.88;;;19.80;96.10;;;;;;4124442;28;20034;-62
2021/09/04 08:04:25;;;;;;;11.13;7.38;;;19.90;96.00;;;;;;4123912;28;20054;-65
2021/09/04 08:06:26;;;;;;;16.95;7.07;;;20.00;95.90;;;;;;4125204;28;20553;-64
2021/09/04 08:08:27;;;;;;;14.50;6.70;;;19.80;96.10;;;;;;4124413;28;20031;-64
2021/09/04 08:10:28;;;;;;;14.07;7.72;;;19.80;96.30;;;;;;4125251;28;20042;-63
2021/09/04 08:12:30;;;;;;;13.50;6.75;;;19.70;96.40;;;;;;4123152;28;20120;-66
2021/09/04 08:14:31;;;;;;;17.67;7.85;;;19.80;96.50;;;;;;4125009;28;20038;-63
2021/09/04 08:16:32;;;;;;;10.73;7.40;;;19.80;96.40;;;;;;4124014;28;20038;-63
2021/09/04 08:18:33;;;;;;;10.77;6.95;;;19.80;96.50;;;;;;4125162;28;20556;-64
2021/09/04 08:20:34;;;;;;;140.23;71.72;;;19.50;96.70;;;;;;4123356;28;20050;-63
2021/09/04 08:22:36;;;;;;;12.20;5.57;;;19.60;96.80;;;;;;4124906;28;20101;-63
2021/09/04 08:24:37;;;;;;;8.60;5.13;;;19.70;97.00;;;;;;4122204;28;20455;-63
2021/09/04 08:26:38;;;;;;;8.57;4.53;;;19.70;96.50;;;;;;4124164;28;20108;-62
2021/09/04 08:28:39;;;;;;;7.13;4.45;;;19.70;96.30;;;;;;4123977;28;20038;-62
2021/09/04 08:30:40;;;;;;;10.57;4.72;;;19.80;96.20;;;;;;4123878;28;20050;-62
2021/09/04 08:32:42;;;;;;;6.82;4.32;;;19.70;96.50;;;;;;4124299;28;20085;-62
2021/09/04 08:34:43;;;;;;;10.80;4.53;;;19.60;96.40;;;;;;4123452;28;20077;-62
2021/09/04 08:36:44;;;;;;;9.32;4.25;;;19.70;96.50;;;;;;4123983;28;20046;-62
2021/09/04 08:38:45;;;;;;;7.75;4.00;;;19.70;96.30;;;;;;4122875;28;20042;-62
2021/09/04 08:40:47;;;;;;;9.57;4.00;;;19.60;96.00;;;;;;4125040;28;20030;-62
2021/09/04 08:42:49;;;;;;;5.18;3.90;;;19.70;95.90;;;;;;4123189;28;20049;-62
2021/09/04 08:44:50;;;;;;;8.63;3.92;;;19.90;95.70;;;;;;4123706;28;20054;-62
2021/09/04 08:46:53;;;;;;;8.38;4.35;;;20.00;95.50;;;;;;4122980;28;21054;-62
2021/09/04 08:48:55;;;;;;;7.80;3.92;;;20.20;95.40;;;;;;4124463;28;20057;-62
2021/09/04 08:50:56;;;;;;;5.82;3.63;;;20.40;95.30;;;;;;4123068;28;20430;-62
2021/09/04 08:52:57;;;;;;;65.85;31.83;;;20.80;95.20;;;;;;4124127;28;20061;-63
2021/09/04 08:54:58;;;;;;;5.80;4.25;;;20.90;94.60;;;;;;4123203;28;20030;-63
2021/09/04 08:57:00;;;;;;;7.57;3.38;;;21.00;94.40;;;;;;4124312;28;20088;-63
2021/09/04 08:59:01;;;;;;;8.73;4.22;;;21.10;94.30;;;;;;4123258;28;20101;-63
2021/09/04 09:01:13;;;;;;;8.80;3.97;;;21.30;94.00;;;;;;4122972;28;20073;-63
2021/09/04 09:03:24;;;;;;;4.30;3.30;;;21.70;93.90;;;;;;4123141;28;20046;-63
2021/09/04 09:05:25;;;;;;;7.20;3.50;;;22.00;93.00;;;;;;4123942;28;20102;-62
2021/09/04 09:07:43;;;;;;;6.68;4.35;;;22.30;93.00;;;;;;4123718;28;20434;-63
2021/09/04 09:09:45;;;;;;;9.68;3.80;;;22.50;91.90;;;;;;4125076;28;20218;-63
2021/09/04 09:11:48;;;;;;;7.10;3.33;;;22.50;92.70;;;;;;4127516;28;20046;-61
2021/09/04 09:13:55;;;;;;;7.53;3.70;;;22.60;92.50;;;;;;4124927;28;20093;-63
2021/09/04 09:15:57;;;;;;;5.03;3.58;;;22.70;91.70;;;;;;4127054;28;20100;-61
2021/09/04 09:18:02;;;;;;;3.83;2.88;;;22.50;92.00;;;;;;4126922;28;20034;-65
2021/09/04 09:20:06;;;;;;;3.00;2.70;;;22.60;91.70;;;;;;4126937;28;20100;-62
2021/09/04 09:22:14;;;;;;;8.40;3.00;;;22.60;91.40;;;;;;4125862;28;20034;-63
2021/09/04 09:24:19;;;;;;;3.72;3.00;;;22.40;90.20;;;;;;4126689;28;20042;-62
2021/09/04 09:26:28;;;;;;;5.78;3.28;;;22.30;91.00;;;;;;4123928;28;20093;-62
2021/09/04 09:28:29;;;;;;;7.32;2.97;;;22.20;90.70;;;;;;4122983;28;20873;-61
2021/09/04 09:30:35;;;;;;;7.75;3.22;;;22.00;90.60;;;;;;4121706;28;20608;-62
2021/09/04 09:32:36;;;;;;;5.70;2.63;;;22.00;90.60;;;;;;4121851;28;20034;-64
2021/09/04 09:34:42;;;;;;;3.78;2.72;;;22.10;90.70;;;;;;4119917;28;20514;-63
2021/09/04 09:36:51;;;;;;;5.40;3.65;;;22.30;90.30;;;;;;4122193;28;20080;-63
2021/09/04 09:38:52;;;;;;;5.68;2.50;;;22.70;90.20;;;;;;4120836;28;20093;-63
2021/09/04 09:40:54;;;;;;;6.75;2.67;;;22.80;90.00;;;;;;4122324;28;20631;-63
2021/09/04 09:42:56;;;;;;;5.22;2.60;;;22.80;90.00;;;;;;4120535;28;20877;-64
2021/09/04 09:44:57;;;;;;;6.53;2.88;;;23.00;89.70;;;;;;4122184;28;20041;-64
2021/09/04 09:47:07;;;;;;;8.93;4.15;;;23.00;89.60;;;;;;4120614;28;20042;-63
2021/09/04 09:49:09;;;;;;;8.23;3.33;;;22.70;89.60;;;;;;4121827;28;20050;-62
2021/09/04 09:51:14;;;;;;;4.55;2.90;;;22.70;90.00;;;;;;4120722;28;20034;-62
2021/09/04 09:53:17;;;;;;;5.32;3.70;;;22.50;89.70;;;;;;4121902;28;20053;-62
2021/09/04 09:55:18;;;;;;;5.43;2.75;;;22.30;89.90;;;;;;4120154;28;20064;-61
2021/09/04 09:57:22;;;;;;;5.13;2.92;;;22.10;90.00;;;;;;4120726;28;20120;-61
2021/09/04 09:59:28;;;;;;;5.03;2.47;;;21.90;90.20;;;;;;4120649;28;20454;-61
2021/09/04 10:01:30;;;;;;;4.55;3.03;;;21.80;90.30;;;;;;4121602;28;20112;-61
2021/09/04 10:03:31;;;;;;;3.50;3.10;;;21.50;90.50;;;;;;4125109;28;20141;-62
2021/09/04 10:05:33;;;;;;;4.05;3.13;;;21.30;90.70;;;;;;4125333;28;20042;-60
2021/09/04 10:07:36;;;;;;;6.72;3.60;;;21.30;90.80;;;;;;4125360;28;20030;-61
2021/09/04 10:09:39;;;;;;;4.60;3.03;;;21.30;91.00;;;;;;4120401;28;20035;-60
2021/09/04 10:11:40;;;;;;;3.10;2.78;;;21.50;91.10;;;;;;4122062;28;20144;-61
2021/09/04 10:13:42;;;;;;;4.15;2.95;;;21.80;90.90;;;;;;4119836;28;20092;-60
2021/09/04 10:15:50;;;;;;;5.93;3.00;;;22.10;90.70;;;;;;4121479;28;20441;-58
2021/09/04 10:17:54;;;;;;;5.00;2.97;;;22.20;90.30;;;;;;4120130;28;20031;-57
2021/09/04 10:19:55;;;;;;;3.72;3.33;;;22.10;90.40;;;;;;4122839;28;20104;-59
2021/09/04 10:22:01;;;;;;;5.13;3.38;;;22.10;90.30;;;;;;4119590;28;20085;-59
2021/09/04 10:24:02;;;;;;;5.70;3.00;;;22.00;90.30;;;;;;4120840;28;20034;-60
2021/09/04 10:26:23;;;;;;;4.95;3.08;;;22.00;90.60;;;;;;4120042;28;20057;-61
2021/09/04 10:28:25;;;;;;;6.13;2.63;;;22.00;90.60;;;;;;4125134;28;20034;-61
2021/09/04 10:30:34;;;;;;;6.22;3.28;;;22.00;90.70;;;;;;4117781;28;20076;-63